Time;durP1;ratioP1;P1;durP2;ratioP2;P2;SDS_P1;SDS_P2;PMS_P1;PMS_P2;Temp;Humidity;BMP_temperature;BMP_pressure;BME280_temperature;BME280_humidity;BME280_pressure;Samples;Min_cycle;Max_cycle;Signal;HPM_P1;HPM_P2
2021/01/04 00:02:20;;;;;;;14.20;12.67;;;3.70;87.50;;;;;;5090709;28;20035;-78
2021/01/04 00:05:11;;;;;;;13.27;11.93;;;3.80;87.30;;;;;;5092420;28;20032;-78
2021/01/04 00:08:01;;;;;;;14.23;11.10;;;3.70;86.90;;;;;;5089332;28;20073;-78
2021/01/04 00:10:32;;;;;;;13.43;12.03;;;3.60;86.80;;;;;;5089173;28;20562;-79
2021/01/04 00:13:25;;;;;;;16.27;13.00;;;3.70;87.00;;;;;;5090978;28;20039;-78
2021/01/04 00:16:07;;;;;;;18.88;13.48;;;3.60;87.10;;;;;;5088948;28;20032;-79
2021/01/04 00:18:44;;;;;;;12.63;11.32;;;3.70;87.00;;;;;;5087555;28;20184;-78
2021/01/04 00:21:29;;;;;;;15.43;13.30;;;3.80;86.90;;;;;;5092484;28;20036;-78
2021/01/04 00:24:06;;;;;;;15.97;12.93;;;3.80;86.50;;;;;;5096579;28;20092;-79
2021/01/04 00:27:05;;;;;;;16.07;12.77;;;3.80;86.70;;;;;;5098251;28;20043;-79
2021/01/04 00:29:31;;;;;;;14.47;12.73;;;3.80;86.70;;;;;;5090998;28;20051;-78
2021/01/04 00:32:01;;;;;;;14.10;12.03;;;3.80;86.90;;;;;;5090215;28;20036;-78
2021/01/04 00:34:52;;;;;;;17.07;13.93;;;3.90;86.80;;;;;;5090376;28;20537;-78
2021/01/04 00:37:27;;;;;;;12.10;10.80;;;4.00;86.70;;;;;;5095045;28;20024;-78
2021/01/04 00:40:17;;;;;;;12.37;9.90;;;3.80;86.20;;;;;;5106856;28;20024;-77
2021/01/04 00:42:43;;;;;;;14.90;12.20;;;3.70;86.30;;;;;;5108462;28;20078;-78
2021/01/04 00:45:12;;;;;;;16.63;13.83;;;3.70;86.30;;;;;;5108428;28;20028;-78
2021/01/04 00:47:58;;;;;;;14.20;11.43;;;3.60;86.70;;;;;;5103846;28;20464;-78
2021/01/04 00:50:51;;;;;;;11.63;10.17;;;3.70;86.50;;;;;;5091881;28;20032;-78
2021/01/04 00:53:48;;;;;;;13.07;11.23;;;3.70;86.40;;;;;;5073522;28;20133;-78
2021/01/04 00:56:38;;;;;;;14.17;12.03;;;3.70;86.50;;;;;;5092563;28;20064;-77
2021/01/04 00:59:16;;;;;;;18.27;13.93;;;3.60;86.50;;;;;;5097019;28;20083;-78
2021/01/04 01:01:57;;;;;;;11.43;10.33;;;3.60;87.10;;;;;;5090471;28;20020;-79
2021/01/04 01:04:50;;;;;;;17.00;13.07;;;3.50;86.30;;;;;;5089419;28;20067;-77
2021/01/04 01:07:43;;;;;;;12.55;10.98;;;3.30;87.10;;;;;;5088864;28;20429;-76
2021/01/04 01:10:10;;;;;;;12.95;11.40;;;3.30;87.20;;;;;;5090457;28;20038;-78
2021/01/04 01:13:12;;;;;;;12.60;11.30;;;3.40;87.60;;;;;;5084262;28;20140;-78
2021/01/04 01:15:51;;;;;;;12.70;10.97;;;3.30;87.30;;;;;;5066799;28;20044;-79
2021/01/04 01:18:38;;;;;;;15.07;12.47;;;3.20;87.60;;;;;;5084580;28;20036;-77
2021/01/04 01:21:10;;;;;;;14.37;12.03;;;3.00;88.00;;;;;;5093196;28;20032;-78
2021/01/04 01:23:38;;;;;;;14.30;11.80;;;2.90;88.30;;;;;;5094394;28;20096;-78
2021/01/04 01:26:15;;;;;;;15.30;12.23;;;2.80;88.60;;;;;;5094234;28;20511;-78
2021/01/04 01:29:05;;;;;;;16.53;13.40;;;2.80;89.10;;;;;;5093728;28;20051;-77
2021/01/04 01:31:45;;;;;;;16.17;13.07;;;2.70;89.10;;;;;;5094546;28;20055;-77
2021/01/04 01:34:50;;;;;;;18.80;13.67;;;2.70;89.30;;;;;;5093457;28;20036;-78
2021/01/04 01:37:31;;;;;;;18.60;15.03;;;2.70;89.60;;;;;;5094434;28;20042;-77
2021/01/04 01:40:15;;;;;;;15.43;13.10;;;2.70;89.70;;;;;;5093831;28;20528;-77
2021/01/04 01:43:08;;;;;;;17.87;14.77;;;2.70;89.80;;;;;;5092991;28;20052;-78
2021/01/04 01:45:40;;;;;;;16.70;14.18;;;2.70;90.00;;;;;;5086400;28;20024;-78
2021/01/04 01:48:37;;;;;;;17.97;14.47;;;2.60;89.90;;;;;;5092074;28;20028;-78
2021/01/04 01:51:38;;;;;;;19.07;15.10;;;2.60;90.00;;;;;;5094299;28;20039;-78
2021/01/04 01:54:09;;;;;;;17.17;15.07;;;2.60;90.10;;;;;;5074759;28;20040;-78
2021/01/04 01:56:51;;;;;;;18.77;15.30;;;2.70;90.10;;;;;;5082946;28;20032;-79
2021/01/04 01:59:35;;;;;;;16.33;14.13;;;2.70;90.10;;;;;;5090552;28;20139;-76
2021/01/04 02:02:17;;;;;;;15.93;14.10;;;2.70;90.10;;;;;;5093017;28;20122;-77
2021/01/04 02:05:01;;;;;;;17.47;13.70;;;2.70;90.00;;;;;;5093733;28;20490;-78
2021/01/04 02:07:37;;;;;;;16.50;13.40;;;2.70;89.90;;;;;;5092045;28;20491;-78
2021/01/04 02:10:31;;;;;;;14.30;12.53;;;2.70;90.00;;;;;;5094589;28;20472;-78
2021/01/04 02:13:03;;;;;;;;;;;2.60;89.80;;;;;;5092973;28;20539;-78
2021/01/04 02:15:51;;;;;;;18.57;14.80;;;2.70;89.90;;;;;;5092454;28;19911;-79
2021/01/04 02:18:54;;;;;;;14.87;12.63;;;2.80;90.00;;;;;;5091570;28;20044;-78
2021/01/04 02:21:50;;;;;;;14.25;12.75;;;2.80;90.00;;;;;;5091703;28;20036;-77
2021/01/04 02:24:21;;;;;;;13.43;11.77;;;2.80;89.80;;;;;;5092400;28;20031;-78
2021/01/04 02:26:58;;;;;;;16.30;12.40;;;2.70;89.70;;;;;;5091730;28;20114;-79
2021/01/04 02:29:25;;;;;;;16.63;13.87;;;2.60;89.90;;;;;;5092775;28;20039;-78
2021/01/04 02:31:55;;;;;;;16.70;13.70;;;2.70;90.00;;;;;;5092293;28;20055;-78
2021/01/04 02:34:25;;;;;;;18.00;14.43;;;2.70;90.00;;;;;;5093302;28;20046;-77
2021/01/04 02:36:57;;;;;;;18.17;15.30;;;2.70;90.10;;;;;;5091145;28;20432;-78
2021/01/04 02:39:42;;;;;;;16.60;13.85;;;2.90;90.10;;;;;;5092087;28;20063;-78
2021/01/04 02:42:19;;;;;;;14.40;12.50;;;2.90;90.00;;;;;;5092436;28;20089;-77
2021/01/04 02:44:46;;;;;;;14.60;12.67;;;2.80;89.70;;;;;;5084892;28;20031;-78
2021/01/04 02:47:52;;;;;;;15.00;12.97;;;2.80;89.70;;;;;;5092197;28;20024;-78
2021/01/04 02:50:45;;;;;;;13.47;11.53;;;2.70;89.50;;;;;;5093319;28;20028;-78
2021/01/04 02:53:34;;;;;;;13.10;10.90;;;2.80;89.70;;;;;;5093008;28;20024;-78
2021/01/04 02:56:19;;;;;;;13.20;11.73;;;2.70;89.50;;;;;;5091714;28;20047;-78
2021/01/04 02:58:57;;;;;;;15.10;12.13;;;2.70;89.50;;;;;;5090900;28;20480;-77
2021/01/04 03:01:53;;;;;;;12.50;11.20;;;2.70;89.70;;;;;;5090221;28;20456;-77
2021/01/04 03:04:21;;;;;;;13.00;11.27;;;2.70;89.80;;;;;;5088831;28;20392;-78
2021/01/04 03:07:13;;;;;;;12.90;11.33;;;2.70;89.80;;;;;;5084089;28;20032;-78
2021/01/04 03:09:47;;;;;;;12.60;11.10;;;2.70;89.50;;;;;;5092342;28;20102;-78
2021/01/04 03:12:19;;;;;;;14.00;12.07;;;2.70;89.40;;;;;;5093626;28;20028;-79
2021/01/04 03:15:07;;;;;;;13.77;12.30;;;2.70;89.50;;;;;;5093070;27;20030;-78
2021/01/04 03:17:47;;;;;;;12.97;11.60;;;2.70;89.20;;;;;;5089500;28;20020;-78
2021/01/04 03:20:17;;;;;;;12.60;11.30;;;2.60;89.20;;;;;;5091859;28;20027;-77
2021/01/04 03:22:48;;;;;;;12.07;10.77;;;2.70;89.30;;;;;;5089321;28;20039;-77
2021/01/04 03:25:15;;;;;;;13.93;12.27;;;2.70;89.10;;;;;;5075300;28;20448;-77
2021/01/04 03:27:42;;;;;;;13.87;12.47;;;2.70;89.00;;;;;;5091279;28;20040;-78
2021/01/04 03:30:10;;;;;;;15.00;12.87;;;2.70;88.80;;;;;;5106454;28;20059;-77
2021/01/04 03:32:36;;;;;;;14.87;12.67;;;2.70;88.90;;;;;;5090104;28;20025;-78
2021/01/04 03:35:02;;;;;;;14.67;13.17;;;2.70;88.80;;;;;;5074671;28;20387;-78
2021/01/04 03:37:27;;;;;;;14.03;12.53;;;2.70;88.70;;;;;;5091601;28;20044;-77
2021/01/04 03:39:53;;;;;;;15.43;12.87;;;2.60;88.60;;;;;;5058177;28;20036;-78
2021/01/04 03:42:19;;;;;;;15.90;13.23;;;2.60;88.70;;;;;;5090637;28;20035;-78
2021/01/04 03:44:44;;;;;;;14.37;12.30;;;2.50;88.70;;;;;;5090043;28;20043;-77
2021/01/04 03:47:10;;;;;;;15.90;13.30;;;2.60;89.10;;;;;;5056753;28;20407;-78
2021/01/04 03:49:36;;;;;;;15.37;13.60;;;2.60;89.10;;;;;;5072147;28;20032;-78
2021/01/04 03:52:02;;;;;;;13.53;12.13;;;2.60;89.20;;;;;;5088542;28;20427;-77
2021/01/04 03:54:27;;;;;;;14.20;12.70;;;2.60;89.00;;;;;;5073396;28;20062;-78
2021/01/04 03:56:54;;;;;;;16.27;14.10;;;2.60;89.00;;;;;;5089926;28;20068;-77
2021/01/04 03:59:20;;;;;;;16.20;13.50;;;2.60;89.00;;;;;;5090450;28;20408;-77
2021/01/04 04:01:50;;;;;;;15.30;13.10;;;2.60;88.80;;;;;;5087602;28;20062;-76
2021/01/04 04:04:17;;;;;;;15.00;13.17;;;2.70;89.20;;;;;;5071960;28;20034;-77
2021/01/04 04:06:42;;;;;;;15.33;13.23;;;2.70;89.00;;;;;;5069604;28;20031;-76
2021/01/04 04:09:10;;;;;;;16.57;13.97;;;2.70;88.90;;;;;;5090908;28;20024;-77
2021/01/04 04:11:35;;;;;;;15.43;13.73;;;2.80;89.10;;;;;;5088773;28;20036;-77
2021/01/04 04:14:01;;;;;;;16.40;13.43;;;2.80;88.90;;;;;;5090255;28;20032;-76
2021/01/04 04:16:27;;;;;;;14.67;13.07;;;2.90;88.90;;;;;;5090056;28;20024;-76
2021/01/04 04:18:53;;;;;;;15.63;13.77;;;2.90;88.80;;;;;;5072869;28;20373;-78
2021/01/04 04:21:18;;;;;;;14.57;13.07;;;2.80;88.60;;;;;;5090117;28;20373;-78
2021/01/04 04:23:44;;;;;;;14.33;12.83;;;2.90;88.60;;;;;;5091001;28;20031;-80
2021/01/04 04:26:22;;;;;;;14.50;12.97;;;3.00;88.60;;;;;;5091313;28;20039;-79
2021/01/04 04:28:48;;;;;;;15.37;12.70;;;3.00;88.40;;;;;;5090422;28;20039;-77
2021/01/04 04:31:14;;;;;;;14.40;12.80;;;2.90;88.00;;;;;;5090390;28;20031;-77
2021/01/04 04:33:41;;;;;;;15.43;13.07;;;2.90;87.70;;;;;;5088824;28;20016;-78
2021/01/04 04:36:09;;;;;;;15.47;13.13;;;2.90;87.40;;;;;;5091150;28;20031;-78
2021/01/04 04:38:34;;;;;;;16.13;13.83;;;2.80;87.40;;;;;;5090885;28;20051;-77
2021/01/04 04:41:00;;;;;;;14.93;12.80;;;2.80;87.50;;;;;;5072918;28;20036;-77
2021/01/04 04:43:35;;;;;;;14.87;13.23;;;2.80;87.70;;;;;;5089080;28;20028;-76
2021/01/04 04:46:07;;;;;;;14.90;13.17;;;2.80;87.60;;;;;;5071644;28;20028;-78
2021/01/04 04:48:57;;;;;;;15.60;13.90;;;2.80;87.90;;;;;;5082955;28;20432;-77
2021/01/04 04:51:35;;;;;;;14.37;12.77;;;2.80;87.90;;;;;;5078530;28;20059;-77
2021/01/04 04:54:13;;;;;;;13.97;12.47;;;2.80;87.70;;;;;;5084727;28;20036;-79
2021/01/04 04:57:13;;;;;;;13.33;11.93;;;2.80;87.80;;;;;;5089796;28;20028;-77
2021/01/04 05:00:14;;;;;;;15.57;12.90;;;2.60;88.10;;;;;;5105857;28;20105;-78
2021/01/04 05:02:52;;;;;;;16.27;14.57;;;2.50;88.60;;;;;;5086091;28;20042;-77
2021/01/04 05:05:59;;;;;;;15.97;12.67;;;2.40;88.80;;;;;;5089702;28;20462;-77
2021/01/04 05:08:47;;;;;;;16.87;14.17;;;2.40;89.30;;;;;;5089284;28;20036;-77
2021/01/04 05:11:17;;;;;;;16.37;13.97;;;2.40;89.40;;;;;;5090564;28;20084;-77
2021/01/04 05:13:47;;;;;;;16.53;13.70;;;2.40;89.60;;;;;;5087543;28;20494;-77
2021/01/04 05:16:21;;;;;;;17.23;14.63;;;2.40;89.70;;;;;;5090188;28;20024;-77
2021/01/04 05:19:18;;;;;;;15.70;13.97;;;2.40;89.80;;;;;;5088092;28;20032;-77
2021/01/04 05:22:14;;;;;;;18.90;15.27;;;2.40;89.60;;;;;;5087333;28;20035;-77
2021/01/04 05:25:06;;;;;;;17.83;14.57;;;2.30;89.80;;;;;;5090116;28;20365;-77
2021/01/04 05:27:47;;;;;;;19.87;15.53;;;2.30;90.00;;;;;;5086947;28;20032;-76
2021/01/04 05:30:35;;;;;;;17.67;14.17;;;2.20;90.00;;;;;;5091148;28;20060;-77
2021/01/04 05:33:10;;;;;;;17.10;14.20;;;2.20;90.10;;;;;;5091179;28;20115;-77
2021/01/04 05:35:37;;;;;;;19.23;15.17;;;2.20;90.10;;;;;;5087337;28;20036;-78
2021/01/04 05:38:14;;;;;;;18.73;15.07;;;2.30;90.20;;;;;;5072821;28;20024;-77
2021/01/04 05:41:08;;;;;;;20.07;15.60;;;2.20;90.10;;;;;;5073832;28;20036;-77
2021/01/04 05:43:55;;;;;;;20.38;15.57;;;2.20;90.20;;;;;;5087711;28;20123;-76
2021/01/04 05:46:44;;;;;;;18.40;15.00;;;2.30;90.20;;;;;;5090969;28;20036;-77
2021/01/04 05:49:25;;;;;;;18.53;15.07;;;2.40;90.20;;;;;;5085238;28;20044;-78
2021/01/04 05:51:50;;;;;;;18.60;14.73;;;2.40;90.20;;;;;;5087893;28;20036;-77
2021/01/04 05:54:29;;;;;;;17.90;14.73;;;2.40;90.10;;;;;;5089586;28;20035;-78
2021/01/04 05:57:15;;;;;;;20.70;15.73;;;2.30;90.20;;;;;;5087564;28;20472;-76
2021/01/04 05:59:49;;;;;;;19.53;15.20;;;2.30;90.10;;;;;;5089817;28;20143;-77
2021/01/04 06:02:23;;;;;;;20.40;14.80;;;2.40;90.10;;;;;;5071752;28;20460;-77
2021/01/04 06:04:48;;;;;;;17.63;14.83;;;2.50;90.10;;;;;;5088060;28;20035;-78
2021/01/04 06:07:14;;;;;;;18.23;15.67;;;2.50;90.10;;;;;;5092204;28;20375;-77
2021/01/04 06:09:40;;;;;;;17.77;15.23;;;2.50;90.10;;;;;;5094479;28;20036;-77
2021/01/04 06:12:19;;;;;;;18.33;14.87;;;2.50;90.00;;;;;;5093803;28;20041;-77
2021/01/04 06:14:55;;;;;;;17.00;14.50;;;2.50;89.90;;;;;;5091480;28;20456;-77
2021/01/04 06:17:37;;;;;;;17.10;14.53;;;2.40;89.80;;;;;;5092174;28;20082;-77
2021/01/04 06:20:33;;;;;;;18.90;15.93;;;2.50;90.00;;;;;;5093109;28;20058;-77
2021/01/04 06:23:17;;;;;;;20.27;14.97;;;2.50;90.00;;;;;;5083065;28;20036;-77
2021/01/04 06:25:43;;;;;;;17.07;14.03;;;2.50;89.80;;;;;;5091466;28;20051;-77
2021/01/04 06:28:09;;;;;;;16.50;14.27;;;2.60;89.70;;;;;;5093249;28;20431;-77
2021/01/04 06:30:38;;;;;;;16.53;14.07;;;2.60;89.60;;;;;;5056971;28;20052;-76
2021/01/04 06:33:14;;;;;;;16.37;14.40;;;2.60;89.50;;;;;;5091930;28;20043;-77
2021/01/04 06:35:39;;;;;;;18.27;15.30;;;2.60;89.50;;;;;;5092462;28;20028;-76
2021/01/04 06:38:26;;;;;;;18.50;15.07;;;2.60;89.40;;;;;;5092700;28;20039;-77
2021/01/04 06:40:53;;;;;;;19.33;15.53;;;2.60;89.70;;;;;;5093555;28;20032;-77
2021/01/04 06:43:30;;;;;;;18.83;15.73;;;2.60;89.20;;;;;;5092109;28;20034;-77
2021/01/04 06:46:44;;;;;;;17.43;14.37;;;2.60;89.20;;;;;;5093822;28;20027;-78
2021/01/04 06:49:19;;;;;;;17.35;15.20;;;2.60;89.20;;;;;;5095938;28;20028;-78
2021/01/04 06:52:10;;;;;;;18.40;15.70;;;2.60;89.00;;;;;;5095081;28;20028;-78
2021/01/04 06:55:00;;;;;;;16.93;14.73;;;2.60;89.10;;;;;;5093268;28;20020;-77
2021/01/04 06:57:57;;;;;;;18.20;15.23;;;2.60;88.90;;;;;;5090686;28;20035;-77
2021/01/04 07:00:34;;;;;;;17.50;15.00;;;2.60;88.80;;;;;;5090739;28;20074;-77
2021/01/04 07:03:17;;;;;;;17.77;15.23;;;2.60;88.90;;;;;;5072949;28;20021;-77
2021/01/04 07:05:49;;;;;;;23.27;15.15;;;2.60;89.00;;;;;;5073456;28;20032;-77
2021/01/04 07:08:28;;;;;;;17.07;14.37;;;2.60;89.00;;;;;;5092098;28;20123;-78
2021/01/04 07:11:12;;;;;;;18.23;14.53;;;2.60;88.90;;;;;;5090832;28;20024;-76
2021/01/04 07:14:02;;;;;;;18.80;14.87;;;2.60;88.80;;;;;;5093324;28;20031;-78
2021/01/04 07:16:59;;;;;;;18.40;15.17;;;2.60;89.10;;;;;;5086122;28;20077;-77
2021/01/04 07:19:46;;;;;;;17.90;14.63;;;2.70;88.60;;;;;;5085828;28;20430;-78
2021/01/04 07:22:41;;;;;;;17.57;15.33;;;2.70;88.70;;;;;;5092963;28;20020;-78
2021/01/04 07:25:46;;;;;;;17.80;14.93;;;2.70;88.50;;;;;;5087014;28;20062;-77
2021/01/04 07:28:24;;;;;;;20.03;15.47;;;2.70;88.60;;;;;;5067577;28;20036;-78
2021/01/04 07:30:56;;;;;;;17.13;14.93;;;2.70;88.70;;;;;;5079182;28;20032;-78
2021/01/04 07:33:32;;;;;;;19.00;15.48;;;2.70;88.70;;;;;;5081967;28;20460;-77
2021/01/04 07:36:19;;;;;;;18.37;15.27;;;2.70;88.70;;;;;;5079326;28;20551;-77
2021/01/04 07:39:18;;;;;;;19.23;15.20;;;2.70;88.80;;;;;;5080536;28;20070;-76
2021/01/04 07:42:03;;;;;;;18.37;15.03;;;2.70;88.80;;;;;;5072273;28;20044;-78
2021/01/04 07:44:46;;;;;;;18.47;15.37;;;2.60;88.70;;;;;;5079031;28;20028;-78
2021/01/04 07:47:21;;;;;;;19.80;15.73;;;2.60;88.90;;;;;;5078378;28;20036;-77
2021/01/04 07:49:59;;;;;;;19.73;15.97;;;2.60;88.90;;;;;;5079735;28;20036;-77
2021/01/04 07:52:46;;;;;;;21.00;16.70;;;2.60;89.00;;;;;;5078517;28;20037;-77
2021/01/04 07:55:24;;;;;;;20.13;15.60;;;2.70;89.40;;;;;;5079191;28;20036;-77
2021/01/04 07:57:49;;;;;;;17.53;14.50;;;2.80;89.30;;;;;;5084982;28;20043;-77
2021/01/04 08:00:46;;;;;;;18.93;15.47;;;2.70;88.70;;;;;;5082842;28;20044;-78
2021/01/04 08:03:24;;;;;;;20.40;15.83;;;2.70;89.10;;;;;;5088320;28;20031;-78
2021/01/04 08:06:03;;;;;;;23.63;16.77;;;2.70;89.10;;;;;;5088051;28;20036;-78
2021/01/04 08:08:41;;;;;;;19.07;16.13;;;2.70;89.30;;;;;;5083631;28;20036;-79
2021/01/04 08:11:40;;;;;;;20.97;16.30;;;2.70;89.20;;;;;;5086553;28;20031;-78
2021/01/04 08:14:44;;;;;;;20.97;16.30;;;2.60;89.60;;;;;;5089156;28;20436;-78
2021/01/04 08:17:31;;;;;;;22.38;16.55;;;2.60;89.50;;;;;;5085332;28;20032;-78
2021/01/04 08:19:59;;;;;;;22.77;17.03;;;2.60;89.60;;;;;;5083637;28;20033;-78
2021/01/04 08:22:41;;;;;;;19.77;16.53;;;2.60;89.50;;;;;;5084675;28;20676;-79
2021/01/04 08:25:12;;;;;;;21.97;17.67;;;2.60;89.40;;;;;;5084837;28;20035;-78
2021/01/04 08:27:57;;;;;;;22.53;17.20;;;2.60;89.60;;;;;;5089707;28;20032;-79
2021/01/04 08:30:37;;;;;;;22.27;17.67;;;2.70;89.60;;;;;;5099704;28;20042;-78
2021/01/04 08:33:41;;;;;;;24.57;18.37;;;2.70;89.80;;;;;;5106170;28;20323;-78
2021/01/04 08:36:17;;;;;;;31.95;21.13;;;2.70;89.60;;;;;;5103122;28;20020;-79
2021/01/04 08:38:43;;;;;;;29.27;20.90;;;2.80;89.80;;;;;;5089387;28;20110;-79
2021/01/04 08:41:14;;;;;;;19.37;16.20;;;2.90;89.70;;;;;;5082941;28;20058;-79
2021/01/04 08:43:46;;;;;;;21.17;16.47;;;2.90;89.30;;;;;;5091712;28;20028;-79
2021/01/04 08:46:12;;;;;;;27.57;19.93;;;2.90;89.30;;;;;;5093604;28;20034;-79
2021/01/04 08:48:38;;;;;;;27.70;19.63;;;2.90;89.20;;;;;;5093958;28;20447;-80
2021/01/04 08:51:29;;;;;;;24.37;17.57;;;3.00;89.40;;;;;;5087817;28;20089;-79
2021/01/04 08:54:11;;;;;;;34.40;23.73;;;3.00;89.10;;;;;;5112675;27;20127;-79
2021/01/04 08:56:47;;;;;;;22.43;17.13;;;3.00;89.00;;;;;;5090631;28;20431;-80
2021/01/04 08:59:17;;;;;;;20.83;16.67;;;3.10;88.60;;;;;;5088140;28;20052;-79
2021/01/04 09:01:56;;;;;;;20.80;16.27;;;3.10;88.20;;;;;;5089477;28;20103;-80
2021/01/04 09:04:37;;;;;;;27.97;17.87;;;3.10;88.10;;;;;;5089028;28;20119;-80
2021/01/04 09:07:18;;;;;;;19.40;14.90;;;3.20;88.20;;;;;;5085386;28;20225;-80
2021/01/04 09:10:14;;;;;;;21.73;17.23;;;3.20;87.80;;;;;;5088522;28;20384;-79
2021/01/04 09:12:48;;;;;;;19.30;15.20;;;3.10;88.10;;;;;;5085295;28;20138;-78
2021/01/04 09:15:19;;;;;;;18.07;13.77;;;3.10;87.30;;;;;;5080555;28;20028;-78
2021/01/04 09:18:00;;;;;;;18.00;14.70;;;3.10;86.90;;;;;;5086914;28;20035;-76
2021/01/04 09:20:49;;;;;;;17.17;13.43;;;3.10;87.30;;;;;;5090000;28;20298;-80
2021/01/04 09:23:21;;;;;;;23.67;17.77;;;3.10;87.00;;;;;;5086633;28;20035;-80
2021/01/04 09:26:10;;;;;;;14.33;12.17;;;3.20;87.30;;;;;;5089593;28;20039;-80
2021/01/04 09:28:52;;;;;;;16.10;13.23;;;3.10;86.20;;;;;;5085960;28;20044;-79
2021/01/04 09:31:18;;;;;;;21.47;15.60;;;3.10;86.20;;;;;;5089740;28;20035;-79
2021/01/04 09:33:50;;;;;;;17.87;13.73;;;3.10;86.70;;;;;;5089171;28;20058;-78
2021/01/04 09:36:19;;;;;;;16.50;13.40;;;3.10;86.60;;;;;;5088434;28;20028;-78
2021/01/04 09:38:45;;;;;;;16.90;13.37;;;3.10;86.30;;;;;;5090053;28;20024;-78
2021/01/04 09:41:12;;;;;;;19.87;14.07;;;3.10;86.20;;;;;;5089980;28;20034;-79
2021/01/04 09:43:40;;;;;;;14.43;12.63;;;3.10;86.20;;;;;;5075200;28;20031;-80
2021/01/04 09:46:30;;;;;;;15.17;12.50;;;3.10;86.30;;;;;;5093264;28;20107;-79
2021/01/04 09:49:03;;;;;;;15.57;12.70;;;3.10;86.00;;;;;;5093619;28;20032;-79
2021/01/04 09:51:31;;;;;;;14.68;12.50;;;3.10;86.30;;;;;;5091478;28;20421;-80
2021/01/04 09:54:02;;;;;;;16.23;12.73;;;3.10;85.80;;;;;;5094986;28;20384;-79
2021/01/04 09:56:31;;;;;;;14.00;11.60;;;3.00;85.90;;;;;;5091538;28;20429;-77
2021/01/04 09:59:10;;;;;;;17.30;13.20;;;3.00;85.80;;;;;;5093058;28;20032;-80
2021/01/04 10:01:44;;;;;;;19.43;15.00;;;3.00;85.70;;;;;;5094005;28;20093;-81
2021/01/04 10:04:10;;;;;;;17.73;14.00;;;3.10;86.00;;;;;;5093453;28;20024;-79
2021/01/04 10:06:39;;;;;;;16.90;13.03;;;3.10;85.60;;;;;;5091550;28;20085;-80
2021/01/04 10:09:14;;;;;;;17.00;14.13;;;3.10;85.40;;;;;;5091906;28;20085;-79
2021/01/04 10:11:39;;;;;;;19.10;14.63;;;3.20;85.60;;;;;;5087037;28;20020;-80
2021/01/04 10:14:11;;;;;;;13.07;11.40;;;3.30;85.80;;;;;;5088312;28;20039;-79
2021/01/04 10:16:41;;;;;;;19.07;13.03;;;3.30;85.20;;;;;;5088871;28;20035;-79
2021/01/04 10:19:19;;;;;;;15.40;11.80;;;3.30;85.20;;;;;;5089490;28;20597;-79
2021/01/04 10:21:58;;;;;;;17.20;13.70;;;3.30;85.00;;;;;;5090496;28;20035;-81
2021/01/04 10:24:46;;;;;;;17.93;12.93;;;3.30;85.00;;;;;;5091876;28;20059;-80
2021/01/04 10:27:21;;;;;;;15.83;11.77;;;3.30;85.10;;;;;;5090833;28;20047;-80
2021/01/04 10:29:52;;;;;;;24.80;19.63;;;3.30;84.80;;;;;;5089588;28;20123;-79
2021/01/04 10:32:29;;;;;;;24.57;21.43;;;3.20;85.00;;;;;;5090582;28;20023;-78
2021/01/04 10:34:55;;;;;;;24.97;20.90;;;3.20;85.00;;;;;;5070307;28;20529;-80
2021/01/04 10:37:41;;;;;;;19.07;15.23;;;3.30;85.10;;;;;;5086886;28;20063;-79
2021/01/04 10:40:14;;;;;;;14.80;11.50;;;3.30;84.90;;;;;;5090889;28;20511;-78
2021/01/04 10:42:44;;;;;;;19.23;15.55;;;3.30;84.50;;;;;;5092157;28;20033;-79
2021/01/04 10:45:18;;;;;;;17.97;14.40;;;3.30;84.60;;;;;;5088885;28;20055;-79
2021/01/04 10:47:56;;;;;;;22.10;14.47;;;3.30;84.80;;;;;;5073879;28;20032;-79
2021/01/04 10:50:33;;;;;;;17.60;13.47;;;3.30;84.30;;;;;;5089233;28;20032;-79
2021/01/04 10:53:04;;;;;;;21.77;16.07;;;3.30;84.60;;;;;;5083923;28;20118;-80
2021/01/04 10:55:35;;;;;;;13.57;10.83;;;3.40;84.70;;;;;;5091265;28;20028;-80
2021/01/04 10:58:29;;;;;;;17.00;12.40;;;3.30;84.40;;;;;;5088175;28;20466;-80
2021/01/04 11:01:02;;;;;;;19.20;15.07;;;3.40;84.70;;;;;;5089622;28;20048;-83
2021/01/04 11:03:28;;;;;;;13.07;9.87;;;3.30;84.40;;;;;;5093320;28;20032;-79
2021/01/04 11:05:54;;;;;;;19.27;14.10;;;3.30;84.10;;;;;;5073117;28;20038;-79
2021/01/04 11:08:22;;;;;;;16.43;12.87;;;3.30;84.60;;;;;;5089610;28;20118;-80
2021/01/04 11:11:16;;;;;;;11.87;10.23;;;3.30;84.90;;;;;;5089071;28;20119;-79
2021/01/04 11:13:42;;;;;;;13.77;10.93;;;3.30;84.70;;;;;;5085635;28;20020;-81
2021/01/04 11:16:14;;;;;;;15.10;12.60;;;3.20;84.60;;;;;;5074673;28;20028;-80
2021/01/04 11:18:54;;;;;;;12.80;11.20;;;3.20;84.90;;;;;;5095088;28;20024;-78
2021/01/04 11:21:34;;;;;;;14.30;11.70;;;3.30;85.20;;;;;;5093727;28;20032;-80
2021/01/04 11:24:00;;;;;;;14.90;12.10;;;3.20;85.20;;;;;;5092001;28;20436;-78
2021/01/04 11:26:25;;;;;;;15.90;13.33;;;3.20;85.10;;;;;;5084396;28;20031;-79
2021/01/04 11:28:51;;;;;;;18.73;14.77;;;3.30;85.70;;;;;;5067469;28;20066;-78
2021/01/04 11:31:16;;;;;;;18.27;14.17;;;3.30;85.70;;;;;;5078233;28;20039;-81
2021/01/04 11:33:42;;;;;;;18.43;12.83;;;3.30;85.00;;;;;;5057889;28;20027;-79
2021/01/04 11:36:10;;;;;;;11.90;10.20;;;3.40;85.70;;;;;;5090376;28;20024;-80
2021/01/04 11:38:36;;;;;;;12.83;10.37;;;3.40;85.10;;;;;;5091690;28;20042;-80
2021/01/04 11:41:01;;;;;;;15.17;12.00;;;3.30;85.50;;;;;;5072909;28;20394;-81
2021/01/04 11:43:27;;;;;;;14.07;11.07;;;3.40;85.80;;;;;;5089300;28;20036;-79
2021/01/04 11:45:53;;;;;;;12.37;9.73;;;3.50;86.00;;;;;;5075945;28;20031;-79
2021/01/04 11:48:18;;;;;;;12.83;10.27;;;3.60;85.40;;;;;;5074887;28;20489;-80
2021/01/04 11:50:45;;;;;;;12.63;10.33;;;3.50;85.00;;;;;;5092525;28;20051;-80
2021/01/04 11:53:10;;;;;;;13.30;10.80;;;3.60;85.10;;;;;;5091132;28;20050;-80
2021/01/04 11:55:37;;;;;;;15.47;12.03;;;3.60;85.20;;;;;;5090445;28;20395;-80
2021/01/04 11:58:03;;;;;;;12.70;10.13;;;3.60;84.80;;;;;;5090560;28;20472;-79
2021/01/04 12:00:28;;;;;;;16.60;13.20;;;3.70;84.20;;;;;;5089248;28;20109;-80
2021/01/04 12:02:54;;;;;;;15.97;11.73;;;3.70;84.80;;;;;;5091701;28;20040;-79
2021/01/04 12:05:20;;;;;;;15.07;12.67;;;3.80;84.40;;;;;;5093669;28;20107;-79
2021/01/04 12:07:46;;;;;;;14.63;11.60;;;3.90;84.80;;;;;;5091347;28;20028;-79
2021/01/04 12:10:13;;;;;;;14.90;10.63;;;3.90;84.40;;;;;;5090978;28;20031;-80
2021/01/04 12:12:38;;;;;;;14.63;11.17;;;3.80;83.80;;;;;;5089450;28;20020;-81
2021/01/04 12:15:06;;;;;;;13.03;11.10;;;3.80;83.80;;;;;;5051490;28;20024;-79
2021/01/04 12:17:32;;;;;;;14.47;11.43;;;3.80;84.10;;;;;;5082108;28;20046;-79
2021/01/04 12:19:57;;;;;;;14.03;11.13;;;3.70;83.90;;;;;;5086990;28;20020;-80
2021/01/04 12:22:23;;;;;;;13.90;11.63;;;3.70;83.80;;;;;;5092808;28;20032;-79
2021/01/04 12:24:49;;;;;;;14.00;11.43;;;3.70;83.90;;;;;;5072472;28;20028;-80
2021/01/04 12:27:17;;;;;;;13.30;11.57;;;3.60;83.90;;;;;;5085400;28;20031;-80
2021/01/04 12:29:47;;;;;;;13.97;11.87;;;3.60;83.70;;;;;;5090342;28;20024;-80
2021/01/04 12:32:14;;;;;;;15.50;11.57;;;3.60;83.80;;;;;;5104626;28;20055;-80
2021/01/04 12:34:40;;;;;;;13.17;10.80;;;3.50;83.70;;;;;;5092351;28;20075;-79
2021/01/04 12:37:06;;;;;;;15.27;11.17;;;3.50;84.00;;;;;;5083878;28;20024;-79
2021/01/04 12:39:32;;;;;;;17.60;11.87;;;3.50;84.00;;;;;;5088940;28;20519;-79
2021/01/04 12:41:57;;;;;;;14.67;11.57;;;3.50;84.00;;;;;;5071749;28;20033;-79
2021/01/04 12:44:23;;;;;;;15.00;11.93;;;3.50;83.70;;;;;;5072330;28;20058;-79
2021/01/04 12:46:51;;;;;;;15.20;12.17;;;3.50;83.60;;;;;;5090217;28;20024;-80
2021/01/04 12:49:19;;;;;;;17.63;12.53;;;3.60;84.20;;;;;;5089256;28;20059;-82
2021/01/04 12:51:50;;;;;;;15.37;12.60;;;3.60;84.10;;;;;;5084885;28;20016;-81
2021/01/04 12:54:21;;;;;;;14.57;12.27;;;3.60;83.70;;;;;;5084339;28;20256;-80
2021/01/04 12:56:48;;;;;;;17.57;13.67;;;3.60;83.80;;;;;;5079582;28;20040;-80
2021/01/04 12:59:19;;;;;;;16.53;12.97;;;3.60;84.30;;;;;;5067895;28;20366;-79
2021/01/04 13:01:49;;;;;;;16.87;13.00;;;3.70;84.20;;;;;;5094173;28;20658;-80
2021/01/04 13:04:15;;;;;;;16.13;13.03;;;3.60;83.80;;;;;;5094731;28;20021;-80
2021/01/04 13:06:40;;;;;;;17.40;12.60;;;3.60;84.10;;;;;;5091065;28;20112;-79
2021/01/04 13:09:06;;;;;;;18.07;13.93;;;3.60;83.90;;;;;;5091665;28;20039;-80
2021/01/04 13:11:32;;;;;;;17.00;12.70;;;3.60;84.20;;;;;;5088884;28;20039;-78
2021/01/04 13:13:58;;;;;;;18.03;13.47;;;3.50;84.00;;;;;;5088493;28;20032;-78
2021/01/04 13:16:23;;;;;;;16.97;13.03;;;3.50;84.60;;;;;;5093229;28;20079;-78
2021/01/04 13:18:49;;;;;;;17.40;13.27;;;3.40;84.30;;;;;;5075836;28;20032;-79
2021/01/04 13:21:24;;;;;;;16.73;13.63;;;3.50;84.90;;;;;;5072847;28;20114;-80
2021/01/04 13:23:49;;;;;;;18.70;13.40;;;3.50;85.00;;;;;;5077354;28;20031;-81
2021/01/04 13:26:15;;;;;;;20.33;14.43;;;3.60;85.00;;;;;;5076041;28;20608;-82